Time;durP1;ratioP1;P1;durP2;ratioP2;P2;SDS_P1;SDS_P2;PMS_P1;PMS_P2;Temp;Humidity;BMP_temperature;BMP_pressure;BME280_temperature;BME280_humidity;BME280_pressure;Samples;Min_cycle;Max_cycle;Signal;HPM_P1;HPM_P2
2021/05/20 00:00:33;;;;;;;3.70;2.65;;;10.60;99.90;;;;;;4925408;28;20047;-64
2021/05/20 00:03:00;;;;;;;3.17;2.72;;;10.60;99.90;;;;;;4929800;28;20609;-64
2021/05/20 00:05:27;;;;;;;3.83;2.42;;;10.50;99.90;;;;;;4927756;28;20079;-64
2021/05/20 00:07:54;;;;;;;2.28;2.08;;;10.50;99.90;;;;;;4930023;28;20059;-64
2021/05/20 00:10:21;;;;;;;4.38;2.60;;;10.50;99.90;;;;;;4929293;28;20107;-64
2021/05/20 00:12:48;;;;;;;7.45;2.50;;;10.50;99.90;;;;;;4929368;28;20055;-64
2021/05/20 00:15:15;;;;;;;3.03;2.65;;;10.40;99.90;;;;;;4930140;28;20122;-64
2021/05/20 00:17:44;;;;;;;3.08;2.83;;;10.40;99.90;;;;;;4928618;28;20078;-64
2021/05/20 00:20:13;;;;;;;7.50;2.78;;;10.30;99.90;;;;;;4928299;28;20067;-64
2021/05/20 00:22:40;;;;;;;3.47;2.80;;;10.30;99.90;;;;;;4927995;28;20048;-64
2021/05/20 00:25:08;;;;;;;2.90;2.70;;;10.30;99.90;;;;;;4921961;28;20087;-64
2021/05/20 00:27:35;;;;;;;2.72;2.50;;;10.20;99.90;;;;;;4925233;28;20051;-64
2021/05/20 00:30:04;;;;;;;5.95;2.63;;;10.20;99.90;;;;;;4929797;28;20078;-64
2021/05/20 00:32:31;;;;;;;2.63;2.42;;;10.10;99.90;;;;;;4930968;28;21004;-63
2021/05/20 00:34:58;;;;;;;4.15;3.15;;;10.10;99.90;;;;;;4930663;28;20123;-64
2021/05/20 00:37:24;;;;;;;2.83;2.63;;;10.00;99.90;;;;;;4931580;28;20062;-64
2021/05/20 00:39:52;;;;;;;3.55;2.97;;;10.00;99.90;;;;;;4934297;28;20419;-64
2021/05/20 00:42:19;;;;;;;3.30;2.83;;;10.00;99.90;;;;;;4938609;28;20118;-64
2021/05/20 00:44:55;;;;;;;2.47;2.28;;;10.00;99.90;;;;;;4934066;28;20051;-64
2021/05/20 00:47:29;;;;;;;2.38;2.17;;;10.00;99.90;;;;;;4931610;28;20499;-64
2021/05/20 00:49:57;;;;;;;6.93;2.90;;;10.00;99.90;;;;;;4932117;28;20043;-64
2021/05/20 00:52:24;;;;;;;3.70;2.25;;;10.00;99.90;;;;;;4933296;28;20055;-64
2021/05/20 00:54:55;;;;;;;3.45;2.90;;;9.90;99.90;;;;;;4932395;28;20123;-64
2021/05/20 00:57:23;;;;;;;3.42;2.47;;;9.90;99.90;;;;;;4930900;28;20063;-64
2021/05/20 00:59:50;;;;;;;3.75;2.83;;;9.90;99.90;;;;;;4932291;28;20062;-63
2021/05/20 01:02:19;;;;;;;3.55;2.63;;;9.90;99.90;;;;;;4932799;28;20083;-64
2021/05/20 01:04:47;;;;;;;3.53;2.67;;;9.80;99.90;;;;;;4933040;28;20130;-63
2021/05/20 01:07:14;;;;;;;3.47;2.38;;;9.80;99.90;;;;;;4930675;28;21348;-64
2021/05/20 01:09:42;;;;;;;4.53;2.53;;;9.80;99.90;;;;;;4931365;28;20063;-64
2021/05/20 01:12:11;;;;;;;8.23;2.92;;;9.80;99.90;;;;;;4932064;28;20094;-64
2021/05/20 01:14:43;;;;;;;4.43;2.47;;;9.80;99.90;;;;;;4930134;28;20055;-64
2021/05/20 01:17:11;;;;;;;3.72;2.30;;;9.70;99.90;;;;;;4933495;28;20490;-64
2021/05/20 01:19:44;;;;;;;2.58;2.38;;;9.70;99.90;;;;;;4931489;28;20062;-64
2021/05/20 01:22:13;;;;;;;18.90;4.05;;;9.70;99.90;;;;;;4930878;28;20079;-64
2021/05/20 01:24:40;;;;;;;4.13;2.72;;;9.70;99.90;;;;;;4932845;28;20134;-64
2021/05/20 01:27:09;;;;;;;3.05;2.40;;;9.70;99.90;;;;;;4932924;28;20181;-65
2021/05/20 01:29:39;;;;;;;2.25;2.10;;;9.70;99.90;;;;;;4930137;28;20058;-64
2021/05/20 01:32:06;;;;;;;2.13;1.92;;;9.60;99.90;;;;;;4932051;28;20435;-64
2021/05/20 01:34:34;;;;;;;3.22;2.63;;;9.70;99.90;;;;;;4932922;28;20075;-64
2021/05/20 01:37:07;;;;;;;3.15;2.00;;;9.60;99.90;;;;;;4932421;28;20056;-64
2021/05/20 01:39:34;;;;;;;2.38;2.20;;;9.70;99.90;;;;;;4928407;28;20476;-64
2021/05/20 01:42:01;;;;;;;2.50;2.30;;;9.70;99.90;;;;;;4931848;28;20147;-64
2021/05/20 01:44:28;;;;;;;2.53;2.33;;;9.70;99.90;;;;;;4932483;28;20059;-64
2021/05/20 01:46:55;;;;;;;4.85;2.70;;;9.70;99.90;;;;;;4932207;28;20063;-64
2021/05/20 01:49:22;;;;;;;4.40;3.03;;;9.70;99.90;;;;;;4929876;28;20078;-64
2021/05/20 01:51:50;;;;;;;3.13;2.42;;;9.70;99.90;;;;;;4934509;28;20453;-64
2021/05/20 01:54:17;;;;;;;2.08;1.98;;;9.70;99.90;;;;;;4933459;28;20067;-64
2021/05/20 01:56:44;;;;;;;2.33;2.13;;;9.70;99.90;;;;;;4935546;28;20094;-64
2021/05/20 01:59:11;;;;;;;2.60;2.40;;;9.70;99.90;;;;;;4938445;28;20146;-64
2021/05/20 02:01:38;;;;;;;3.65;2.45;;;9.70;99.90;;;;;;4937571;28;20116;-64
2021/05/20 02:04:05;;;;;;;2.58;2.30;;;9.60;99.90;;;;;;4938972;28;20088;-64
2021/05/20 02:06:32;;;;;;;3.75;2.75;;;9.60;99.90;;;;;;4938748;28;20090;-64
2021/05/20 02:09:04;;;;;;;3.30;2.70;;;9.60;99.90;;;;;;4935156;28;20052;-64
2021/05/20 02:11:31;;;;;;;2.10;2.00;;;9.60;99.90;;;;;;4936703;28;20301;-64
2021/05/20 02:13:58;;;;;;;4.32;2.25;;;9.50;99.90;;;;;;4938252;28;20510;-64
2021/05/20 02:16:25;;;;;;;4.70;2.35;;;9.50;99.90;;;;;;4937044;28;20055;-64
2021/05/20 02:18:51;;;;;;;3.20;2.08;;;9.50;99.90;;;;;;4937606;28;20103;-64
2021/05/20 02:21:18;;;;;;;3.83;3.08;;;9.50;99.90;;;;;;4936147;28;21570;-64
2021/05/20 02:23:45;;;;;;;3.65;2.38;;;9.50;99.90;;;;;;4937521;28;20047;-64
2021/05/20 02:26:14;;;;;;;2.90;2.70;;;9.50;99.90;;;;;;4931668;28;20565;-64
2021/05/20 02:28:41;;;;;;;2.90;2.65;;;9.50;99.90;;;;;;4927589;28;20106;-63
2021/05/20 02:31:09;;;;;;;3.58;2.70;;;9.50;99.90;;;;;;4933334;28;20689;-64
2021/05/20 02:33:35;;;;;;;2.38;2.17;;;9.50;99.90;;;;;;4931943;28;20055;-64
2021/05/20 02:36:03;;;;;;;2.10;2.00;;;9.50;99.90;;;;;;4933064;28;20615;-63
2021/05/20 02:38:29;;;;;;;3.05;2.38;;;9.50;99.90;;;;;;4930850;28;20074;-64
2021/05/20 02:40:56;;;;;;;3.05;2.75;;;9.50;99.90;;;;;;4932806;28;20059;-64
2021/05/20 02:43:25;;;;;;;3.80;2.25;;;9.50;99.90;;;;;;4930654;28;20095;-64
2021/05/20 02:45:52;;;;;;;5.75;2.67;;;9.50;99.90;;;;;;4931133;28;20754;-64
2021/05/20 02:48:19;;;;;;;5.00;2.95;;;9.40;99.90;;;;;;4930363;29;20051;-64
2021/05/20 02:50:46;;;;;;;2.60;2.40;;;9.40;99.90;;;;;;4931169;28;20066;-64
2021/05/20 02:53:13;;;;;;;5.78;2.80;;;9.40;99.90;;;;;;4923661;28;20074;-64
2021/05/20 02:55:40;;;;;;;2.85;2.65;;;9.40;99.90;;;;;;4925935;28;21528;-64
2021/05/20 02:58:07;;;;;;;3.88;2.63;;;9.40;99.90;;;;;;4932990;28;20145;-63
2021/05/20 03:00:36;;;;;;;2.90;2.60;;;9.30;99.90;;;;;;4930205;28;20047;-64
2021/05/20 03:03:03;;;;;;;3.72;2.20;;;9.30;99.90;;;;;;4931850;28;20055;-64
2021/05/20 03:05:30;;;;;;;3.08;2.13;;;9.20;99.90;;;;;;4928416;28;20067;-64
2021/05/20 03:07:58;;;;;;;2.83;2.50;;;9.20;99.90;;;;;;4930314;28;20925;-64
2021/05/20 03:10:25;;;;;;;5.65;2.92;;;9.20;99.90;;;;;;4930111;28;20095;-64
2021/05/20 03:12:53;;;;;;;5.28;4.03;;;9.20;99.90;;;;;;4931165;28;20142;-64
2021/05/20 03:15:20;;;;;;;3.63;2.85;;;9.10;99.90;;;;;;4930762;28;20938;-64
2021/05/20 03:17:48;;;;;;;2.90;2.70;;;9.10;99.90;;;;;;4926750;28;20138;-64
2021/05/20 03:20:16;;;;;;;3.40;1.98;;;9.10;99.90;;;;;;4929953;28;20130;-64
2021/05/20 03:22:46;;;;;;;3.53;2.58;;;9.10;99.90;;;;;;4931757;28;20055;-64
2021/05/20 03:25:15;;;;;;;4.32;3.40;;;9.10;99.90;;;;;;4929293;28;20766;-64
2021/05/20 03:27:42;;;;;;;8.10;3.42;;;9.10;99.90;;;;;;4930911;28;20059;-65
2021/05/20 03:30:10;;;;;;;4.05;2.63;;;9.10;99.90;;;;;;4932160;28;20176;-64
2021/05/20 03:32:36;;;;;;;4.22;2.80;;;9.20;99.90;;;;;;4932257;28;20114;-63
2021/05/20 03:35:04;;;;;;;3.30;3.03;;;9.20;99.90;;;;;;4931139;28;20504;-63
2021/05/20 03:37:33;;;;;;;5.05;2.90;;;9.20;99.90;;;;;;4930395;28;20050;-65
2021/05/20 03:40:01;;;;;;;3.15;2.85;;;9.10;99.90;;;;;;4928983;28;20051;-64
2021/05/20 03:42:28;;;;;;;3.08;2.85;;;9.10;99.90;;;;;;4929010;28;20079;-64
2021/05/20 03:44:54;;;;;;;6.22;3.08;;;9.10;99.90;;;;;;4932844;28;20533;-64
2021/05/20 03:47:21;;;;;;;4.88;3.08;;;9.10;99.90;;;;;;4928485;28;20047;-64
2021/05/20 03:49:48;;;;;;;3.40;3.17;;;9.10;99.90;;;;;;4932229;28;20103;-64
2021/05/20 03:52:15;;;;;;;4.38;2.70;;;9.10;99.90;;;;;;4931197;28;20087;-64
2021/05/20 03:54:43;;;;;;;3.38;2.70;;;9.10;99.90;;;;;;4931311;28;20469;-64
2021/05/20 03:57:10;;;;;;;3.28;3.03;;;9.10;99.90;;;;;;4929882;28;20067;-64
2021/05/20 03:59:37;;;;;;;4.90;3.90;;;9.10;99.90;;;;;;4928809;28;20059;-64
2021/05/20 04:02:05;;;;;;;3.45;3.03;;;9.10;99.90;;;;;;4929288;28;20063;-64
2021/05/20 04:04:32;;;;;;;3.08;2.88;;;9.10;99.90;;;;;;4928411;28;20067;-64
2021/05/20 04:06:59;;;;;;;4.00;3.50;;;9.10;99.90;;;;;;4930360;28;20063;-64
2021/05/20 04:09:26;;;;;;;3.67;2.88;;;9.20;99.90;;;;;;4927886;28;20070;-65
2021/05/20 04:11:53;;;;;;;3.03;2.83;;;9.20;99.90;;;;;;4927347;28;20111;-65
2021/05/20 04:14:20;;;;;;;3.88;2.90;;;9.30;99.90;;;;;;4929418;28;20051;-64
2021/05/20 04:16:47;;;;;;;3.97;3.58;;;9.30;99.90;;;;;;4931063;29;20115;-64
2021/05/20 04:19:15;;;;;;;4.18;3.20;;;9.30;99.90;;;;;;4928717;28;20059;-64
2021/05/20 04:21:43;;;;;;;5.78;3.58;;;9.40;99.90;;;;;;4929674;28;20051;-64
2021/05/20 04:24:10;;;;;;;3.05;2.75;;;9.40;99.90;;;;;;4929343;28;20095;-64
2021/05/20 04:26:37;;;;;;;6.60;3.00;;;9.50;99.90;;;;;;4936760;28;20122;-64
2021/05/20 04:29:04;;;;;;;5.88;3.55;;;9.50;99.90;;;;;;4933651;28;20130;-64
2021/05/20 04:31:33;;;;;;;3.83;3.47;;;9.50;99.90;;;;;;4930332;28;20055;-64
2021/05/20 04:34:00;;;;;;;4.82;3.10;;;9.50;99.90;;;;;;4935294;28;20051;-64
2021/05/20 04:36:27;;;;;;;3.25;2.95;;;9.40;99.90;;;;;;4936002;28;20078;-64
2021/05/20 04:38:54;;;;;;;3.20;2.90;;;9.50;99.90;;;;;;4928463;28;20055;-64
2021/05/20 04:41:21;;;;;;;5.03;3.03;;;9.50;99.90;;;;;;4928715;28;20062;-64
2021/05/20 04:43:48;;;;;;;3.40;3.10;;;9.50;99.90;;;;;;4930078;28;20059;-65
2021/05/20 04:46:15;;;;;;;6.18;3.53;;;9.50;99.90;;;;;;4927484;28;20123;-64
2021/05/20 04:48:42;;;;;;;3.22;2.92;;;9.60;99.90;;;;;;4923195;28;20054;-64
2021/05/20 04:51:08;;;;;;;4.40;2.65;;;9.60;99.90;;;;;;4929659;28;20063;-65
2021/05/20 04:53:35;;;;;;;5.55;3.83;;;9.50;99.90;;;;;;4927081;28;20426;-64
2021/05/20 04:56:03;;;;;;;4.03;3.45;;;9.50;99.90;;;;;;4930845;28;20715;-64
2021/05/20 04:58:30;;;;;;;4.97;3.08;;;9.60;99.90;;;;;;4929215;28;20066;-64
2021/05/20 05:00:57;;;;;;;5.65;3.58;;;9.60;99.90;;;;;;4929380;28;20059;-64
2021/05/20 05:03:24;;;;;;;3.70;3.40;;;9.60;99.90;;;;;;4925789;28;20078;-64
2021/05/20 05:05:53;;;;;;;3.13;2.83;;;9.60;99.90;;;;;;4929982;28;21456;-64
2021/05/20 05:08:20;;;;;;;3.42;3.13;;;9.70;99.90;;;;;;4926244;28;20055;-64
2021/05/20 05:10:48;;;;;;;6.40;2.88;;;9.60;99.90;;;;;;4930169;28;20476;-64
2021/05/20 05:13:18;;;;;;;6.55;3.90;;;9.70;99.90;;;;;;4928479;28;20058;-63
2021/05/20 05:15:45;;;;;;;3.75;2.88;;;9.70;99.90;;;;;;4928319;28;20051;-64
2021/05/20 05:18:12;;;;;;;3.58;3.17;;;9.70;99.90;;;;;;4928859;28;20178;-64
2021/05/20 05:20:39;;;;;;;3.22;2.92;;;9.70;99.90;;;;;;4930775;28;20458;-64
2021/05/20 05:23:06;;;;;;;6.90;3.50;;;9.70;99.90;;;;;;4932079;28;20078;-65
2021/05/20 05:25:36;;;;;;;6.05;3.50;;;9.70;99.90;;;;;;4931304;28;20134;-64
2021/05/20 05:28:04;;;;;;;4.80;3.10;;;9.70;99.90;;;;;;4931319;28;20075;-64
2021/05/20 05:30:31;;;;;;;3.03;2.75;;;9.80;99.90;;;;;;4934504;28;20051;-64
2021/05/20 05:32:58;;;;;;;4.10;2.90;;;9.80;99.90;;;;;;4924782;28;20047;-64
2021/05/20 05:35:25;;;;;;;3.40;3.10;;;9.80;99.90;;;;;;4932168;28;20055;-64
2021/05/20 05:37:52;;;;;;;3.30;3.00;;;9.80;99.90;;;;;;4932375;28;20801;-64
2021/05/20 05:40:19;;;;;;;7.95;3.20;;;9.90;99.90;;;;;;4931682;28;20099;-64
2021/05/20 05:42:46;;;;;;;3.53;3.22;;;9.90;99.90;;;;;;4931608;28;20075;-64
2021/05/20 05:45:13;;;;;;;5.72;3.28;;;9.90;99.90;;;;;;4930460;28;20051;-64
2021/05/20 05:47:40;;;;;;;4.85;3.17;;;9.90;99.90;;;;;;4931973;28;20118;-63
2021/05/20 05:50:12;;;;;;;3.08;2.78;;;9.90;99.90;;;;;;4931911;28;20055;-64
2021/05/20 05:52:40;;;;;;;3.75;3.45;;;9.90;99.90;;;;;;4931352;28;20055;-64
2021/05/20 05:55:08;;;;;;;3.47;3.17;;;9.90;99.90;;;;;;4932114;28;20083;-64
2021/05/20 05:57:35;;;;;;;3.08;2.67;;;10.00;99.90;;;;;;4927417;28;20059;-64
2021/05/20 06:00:04;;;;;;;4.40;2.97;;;10.00;99.90;;;;;;4926392;28;20067;-64
2021/05/20 06:02:44;;;;;;;3.63;2.95;;;10.00;99.90;;;;;;4926881;28;20835;-64
2021/05/20 06:05:11;;;;;;;4.03;3.05;;;10.00;99.90;;;;;;4928782;28;20148;-65
2021/05/20 06:07:41;;;;;;;4.40;3.38;;;10.00;99.90;;;;;;4929618;28;20424;-64
2021/05/20 06:10:25;;;;;;;6.30;3.03;;;10.00;99.90;;;;;;1879650;28;10023424;-64
2021/05/20 06:12:57;;;;;;;3.83;3.47;;;10.00;99.90;;;;;;4588989;28;10001280;-64
2021/05/20 06:15:24;;;;;;;4.90;4.32;;;10.00;99.90;;;;;;4930703;28;20054;-64
2021/05/20 06:17:51;;;;;;;3.72;2.85;;;10.00;99.90;;;;;;4931897;28;20055;-65
2021/05/20 06:20:18;;;;;;;4.25;3.85;;;10.00;99.90;;;;;;4926839;28;20051;-64
2021/05/20 06:22:46;;;;;;;4.10;3.70;;;10.10;99.90;;;;;;4928515;29;20150;-64
2021/05/20 06:25:13;;;;;;;4.15;3.60;;;10.10;99.90;;;;;;4927611;28;20051;-64
2021/05/20 06:27:41;;;;;;;6.03;3.78;;;10.10;99.90;;;;;;4926668;28;20051;-64
2021/05/20 06:30:09;;;;;;;4.25;3.63;;;10.20;99.90;;;;;;4930017;28;20146;-64
2021/05/20 06:32:36;;;;;;;4.35;3.47;;;10.20;99.90;;;;;;4929522;28;20404;-64
2021/05/20 06:35:04;;;;;;;4.60;3.47;;;10.20;99.90;;;;;;4930004;28;20047;-64
2021/05/20 06:37:32;;;;;;;4.30;3.40;;;10.20;99.90;;;;;;4928208;28;23343;-64
2021/05/20 06:40:00;;;;;;;5.15;3.90;;;10.20;99.90;;;;;;4928839;28;20058;-64
2021/05/20 06:42:27;;;;;;;5.70;3.25;;;10.20;99.90;;;;;;4931876;28;20113;-64
2021/05/20 06:44:54;;;;;;;4.15;3.15;;;10.20;99.90;;;;;;4931906;28;20706;-64
2021/05/20 06:47:21;;;;;;;4.70;3.35;;;10.30;99.90;;;;;;4930127;28;20078;-64
2021/05/20 06:49:49;;;;;;;4.68;3.03;;;10.30;99.90;;;;;;4932114;28;20039;-64
2021/05/20 06:52:16;;;;;;;3.50;3.20;;;10.30;99.90;;;;;;4930687;28;20098;-64
2021/05/20 06:54:43;;;;;;;4.22;3.88;;;10.30;99.90;;;;;;4931108;28;20051;-64
2021/05/20 06:59:55;;;;;;;3.83;3.38;;;10.30;99.90;;;;;;4931443;29;20586;-65
2021/05/20 07:00:16;;;;;;;6.05;3.78;;;10.30;99.90;;;;;;4928545;28;20054;-65
2021/05/20 07:02:43;;;;;;;2.90;2.70;;;10.30;99.90;;;;;;4931368;28;20163;-63
2021/05/20 07:05:10;;;;;;;3.17;2.92;;;10.30;99.90;;;;;;4932630;28;20052;-64
2021/05/20 07:07:38;;;;;;;5.25;3.30;;;10.30;99.90;;;;;;4927112;28;20104;-64
2021/05/20 07:10:07;;;;;;;3.65;3.17;;;10.40;99.90;;;;;;4924827;28;20070;-64
2021/05/20 07:12:35;;;;;;;4.10;3.70;;;10.40;99.90;;;;;;4931782;28;20051;-65
2021/05/20 07:15:03;;;;;;;3.58;3.28;;;10.40;99.90;;;;;;4932396;28;20087;-64
2021/05/20 07:17:30;;;;;;;5.05;3.70;;;10.30;99.90;;;;;;4927899;28;20047;-63
2021/05/20 07:19:57;;;;;;;3.22;2.95;;;10.30;99.90;;;;;;4929906;28;20051;-64
2021/05/20 07:22:24;;;;;;;5.82;3.80;;;10.40;99.90;;;;;;4923528;28;20060;-64
2021/05/20 07:24:51;;;;;;;5.25;3.90;;;10.40;99.90;;;;;;4928641;28;20122;-64
2021/05/20 07:27:18;;;;;;;3.50;3.20;;;10.40;99.90;;;;;;4927054;28;20054;-64
2021/05/20 07:29:45;;;;;;;4.90;2.97;;;10.50;99.90;;;;;;4929413;28;20147;-64
2021/05/20 07:32:18;;;;;;;3.20;2.90;;;10.60;99.90;;;;;;4929209;29;20823;-64
2021/05/20 07:34:44;;;;;;;3.80;3.25;;;10.60;99.90;;;;;;4924864;28;20835;-64
2021/05/20 07:37:12;;;;;;;4.13;3.72;;;10.50;99.90;;;;;;4928017;28;20055;-64
2021/05/20 07:39:39;;;;;;;4.00;3.13;;;10.60;99.90;;;;;;4928827;28;20051;-64
2021/05/20 07:42:06;;;;;;;3.13;2.58;;;10.60;99.90;;;;;;4929380;28;20054;-64
2021/05/20 07:44:35;;;;;;;3.60;3.30;;;10.70;99.90;;;;;;4927450;28;20058;-64
2021/05/20 07:47:03;;;;;;;3.47;3.03;;;10.70;99.90;;;;;;4928096;28;20107;-63
2021/05/20 07:49:32;;;;;;;2.50;2.30;;;10.90;99.90;;;;;;4927316;28;20058;-64
2021/05/20 07:51:58;;;;;;;3.65;3.35;;;10.80;99.90;;;;;;4928565;28;20066;-63
2021/05/20 07:54:25;;;;;;;3.67;2.80;;;10.80;99.90;;;;;;4929953;28;20087;-64
2021/05/20 07:56:52;;;;;;;3.85;3.55;;;10.90;99.90;;;;;;4928628;28;20051;-64
2021/05/20 07:59:19;;;;;;;3.53;2.63;;;11.00;99.90;;;;;;4928926;28;20066;-64
2021/05/20 08:02:07;;;;;;;3.65;2.72;;;10.90;99.90;;;;;;4929665;28;20051;-64
2021/05/20 08:04:35;;;;;;;4.05;3.00;;;10.90;99.90;;;;;;4930251;28;20134;-64
2021/05/20 08:07:31;;;;;;;3.63;3.05;;;10.80;99.90;;;;;;4927607;28;20595;-64
2021/05/20 08:12:31;;;;;;;5.68;2.47;;;10.80;99.90;;;;;;4926683;28;20043;-63
2021/05/20 08:14:58;;;;;;;3.95;3.28;;;10.80;99.90;;;;;;4928555;28;20051;-64
2021/05/20 08:17:25;;;;;;;4.53;3.00;;;10.90;99.90;;;;;;4931410;28;20564;-64
2021/05/20 08:19:52;;;;;;;5.43;3.05;;;11.00;99.90;;;;;;4928422;28;20059;-64
2021/05/20 08:22:19;;;;;;;3.17;2.88;;;11.10;99.90;;;;;;4928133;28;20055;-64
2021/05/20 08:24:46;;;;;;;3.00;2.70;;;11.00;99.90;;;;;;4928924;28;20107;-64
2021/05/20 08:27:13;;;;;;;4.03;3.38;;;11.10;99.90;;;;;;4924818;28;20070;-64
2021/05/20 08:29:40;;;;;;;3.63;2.85;;;11.10;99.90;;;;;;4930303;28;20056;-64
2021/05/20 08:32:07;;;;;;;3.60;3.30;;;11.20;99.90;;;;;;4929380;28;20109;-64
2021/05/20 08:34:34;;;;;;;3.08;2.78;;;11.40;99.90;;;;;;4927788;28;20511;-64
2021/05/20 08:37:01;;;;;;;3.58;3.30;;;11.30;99.90;;;;;;4929289;28;20062;-64
2021/05/20 08:39:29;;;;;;;3.58;3.05;;;11.20;99.90;;;;;;4926584;28;20433;-64
2021/05/20 08:41:56;;;;;;;2.63;2.33;;;11.20;99.90;;;;;;4929947;28;20133;-64
2021/05/20 08:44:27;;;;;;;3.50;2.75;;;11.30;99.90;;;;;;4930185;28;20736;-66
2021/05/20 08:47:06;;;;;;;4.50;3.00;;;11.30;99.90;;;;;;4929009;28;20051;-66
2021/05/20 08:49:33;;;;;;;3.55;3.20;;;11.20;99.90;;;;;;4927002;28;20391;-66
2021/05/20 08:52:00;;;;;;;4.13;3.10;;;11.20;99.90;;;;;;4928227;28;21200;-65
2021/05/20 08:54:43;;;;;;;3.17;2.75;;;11.20;99.90;;;;;;4929345;28;20075;-66
2021/05/20 08:57:10;;;;;;;8.07;2.75;;;11.20;99.90;;;;;;4931652;28;20127;-65
2021/05/20 08:59:37;;;;;;;2.97;2.67;;;11.20;99.90;;;;;;4930014;28;20057;-65
2021/05/20 09:02:04;;;;;;;3.20;2.90;;;11.30;99.90;;;;;;4932603;28;20055;-65
2021/05/20 09:04:31;;;;;;;3.60;2.67;;;11.50;99.90;;;;;;4933851;28;20051;-64
2021/05/20 09:07:10;;;;;;;4.10;3.70;;;11.50;99.90;;;;;;4932006;28;20047;-65
2021/05/20 09:09:42;;;;;;;2.67;2.47;;;11.50;99.90;;;;;;4929426;28;20428;-65
2021/05/20 09:12:11;;;;;;;3.08;2.78;;;11.80;99.90;;;;;;4933631;28;20051;-65
2021/05/20 09:14:41;;;;;;;4.05;2.35;;;11.70;99.90;;;;;;4931929;28;20139;-65
2021/05/20 09:17:19;;;;;;;6.20;2.97;;;11.90;99.90;;;;;;4931937;28;20189;-65
2021/05/20 09:20:07;;;;;;;4.60;2.60;;;12.10;99.90;;;;;;4931646;28;20063;-65
2021/05/20 09:22:35;;;;;;;4.30;2.45;;;12.10;99.90;;;;;;4934033;28;20055;-65
2021/05/20 09:25:04;;;;;;;3.25;2.30;;;12.20;99.90;;;;;;4932493;28;20167;-65
2021/05/20 09:27:37;;;;;;;3.70;2.47;;;12.00;99.90;;;;;;4929828;28;20071;-66
2021/05/20 09:30:24;;;;;;;3.67;2.20;;;12.00;99.90;;;;;;4929419;28;20066;-65
2021/05/20 09:32:57;;;;;;;3.60;2.58;;;12.20;99.90;;;;;;4931600;28;20730;-65
2021/05/20 09:35:30;;;;;;;4.07;2.17;;;12.10;99.90;;;;;;4924738;28;20075;-65
2021/05/20 09:37:58;;;;;;;4.82;2.83;;;12.20;99.90;;;;;;4929408;28;20048;-65
2021/05/20 09:40:34;;;;;;;2.40;2.20;;;12.20;99.90;;;;;;4931120;28;20059;-66
2021/05/20 09:43:01;;;;;;;2.63;2.35;;;12.30;99.90;;;;;;4932677;28;20055;-65
2021/05/20 09:45:28;;;;;;;5.95;2.55;;;12.30;99.90;;;;;;4926345;28;20107;-65
2021/05/20 09:48:06;;;;;;;3.42;2.00;;;12.30;99.90;;;;;;4930640;28;22825;-65
2021/05/20 09:50:39;;;;;;;2.60;2.03;;;12.30;99.90;;;;;;4930087;28;20059;-65
2021/05/20 09:53:09;;;;;;;3.78;2.42;;;12.30;99.90;;;;;;4934681;28;20051;-65
2021/05/20 09:56:01;;;;;;;3.00;2.22;;;12.40;99.90;;;;;;4928425;28;20062;-65
2021/05/20 09:58:31;;;;;;;2.72;1.90;;;12.40;99.90;;;;;;4932118;28;20629;-65
2021/05/20 10:00:59;;;;;;;3.80;2.10;;;12.40;99.90;;;;;;4931756;28;20059;-65
2021/05/20 10:03:28;;;;;;;3.67;2.08;;;12.40;99.90;;;;;;4929031;28;20290;-65
2021/05/20 10:06:01;;;;;;;4.65;3.22;;;12.40;99.90;;;;;;4929604;28;20085;-65
2021/05/20 10:08:32;;;;;;;5.03;2.45;;;12.60;99.90;;;;;;4928877;28;20067;-65
2021/05/20 10:11:01;;;;;;;3.10;2.25;;;12.60;99.90;;;;;;4930473;28;20065;-65
2021/05/20 10:13:30;;;;;;;2.78;2.38;;;12.80;99.90;;;;;;4928504;28;20111;-65
2021/05/20 10:15:58;;;;;;;2.70;2.20;;;12.70;99.90;;;;;;4931790;28;20166;-65
2021/05/20 10:18:27;;;;;;;2.72;2.53;;;12.90;99.90;;;;;;4931238;28;20081;-65
2021/05/20 10:20:57;;;;;;;2.30;2.10;;;12.90;99.90;;;;;;4928890;28;20107;-65
2021/05/20 10:23:25;;;;;;;2.85;2.08;;;12.90;99.90;;;;;;4929092;28;20421;-65
2021/05/20 10:25:55;;;;;;;3.65;1.90;;;13.10;99.90;;;;;;4932853;28;20414;-64
2021/05/20 10:28:24;;;;;;;4.00;1.80;;;13.20;99.90;;;;;;4927126;28;20052;-65
2021/05/20 10:30:53;;;;;;;4.30;2.65;;;13.10;99.90;;;;;;4924300;28;20142;-65
2021/05/20 10:33:28;;;;;;;3.42;1.70;;;13.40;99.90;;;;;;4930407;28;20540;-65
2021/05/20 10:35:57;;;;;;;4.10;1.75;;;13.40;99.90;;;;;;4929384;28;20162;-65
2021/05/20 10:38:30;;;;;;;3.78;2.20;;;13.40;99.90;;;;;;4925706;28;20151;-64
2021/05/20 10:41:12;;;;;;;2.08;1.77;;;13.40;99.90;;;;;;4929318;28;20054;-65
2021/05/20 10:43:41;;;;;;;2.95;1.65;;;13.40;99.90;;;;;;4927355;28;22759;-65
2021/05/20 10:46:13;;;;;;;2.65;2.22;;;13.40;99.90;;;;;;4929786;28;20758;-65
2021/05/20 10:49:18;;;;;;;3.70;1.95;;;13.30;99.90;;;;;;4929792;28;20143;-64
2021/05/20 10:51:44;;;;;;;3.70;2.28;;;13.50;99.90;;;;;;4929232;28;20134;-65
2021/05/20 10:54:14;;;;;;;2.95;1.42;;;13.50;99.90;;;;;;4926269;28;20051;-65
2021/05/20 10:56:48;;;;;;;3.22;1.85;;;13.40;99.90;;;;;;4931940;28;20086;-65
2021/05/20 10:59:37;;;;;;;2.50;1.80;;;13.40;99.90;;;;;;4928003;28;20073;-64
2021/05/20 11:02:12;;;;;;;3.15;1.60;;;13.40;99.90;;;;;;4931374;28;20055;-66
2021/05/20 11:04:42;;;;;;;1.73;1.50;;;13.60;99.90;;;;;;4929025;28;20668;-66
2021/05/20 11:07:09;;;;;;;4.03;2.00;;;13.70;99.90;;;;;;4929356;28;20059;-65
2021/05/20 11:09:45;;;;;;;5.40;1.85;;;13.70;99.90;;;;;;4927923;28;20047;-65
2021/05/20 11:12:12;;;;;;;2.75;2.30;;;13.70;99.90;;;;;;4930356;28;20051;-65
2021/05/20 11:14:40;;;;;;;1.70;1.60;;;13.90;99.90;;;;;;4930995;28;20413;-64
2021/05/20 11:17:36;;;;;;;2.05;1.38;;;14.00;99.90;;;;;;4931292;28;20058;-65
2021/05/20 11:20:25;;;;;;;2.58;1.73;;;14.10;99.90;;;;;;4930605;28;20127;-65
2021/05/20 11:23:18;;;;;;;3.95;1.83;;;14.30;99.90;;;;;;4944645;28;20053;-65
2021/05/20 11:25:45;;;;;;;2.83;1.80;;;14.10;99.90;;;;;;4916252;29;20055;-65
2021/05/20 11:28:17;;;;;;;2.30;1.90;;;14.10;99.90;;;;;;4931123;28;20723;-65
2021/05/20 11:30:44;;;;;;;2.83;1.50;;;14.10;99.90;;;;;;4931944;28;20082;-65
2021/05/20 11:33:18;;;;;;;7.65;2.05;;;14.10;99.90;;;;;;4929096;28;20121;-65
2021/05/20 11:38:28;;;;;;;1.35;1.25;;;14.30;99.90;;;;;;4927324;28;20055;-65
2021/05/20 11:40:56;;;;;;;2.45;1.75;;;14.40;99.90;;;;;;4931107;28;21244;-65
2021/05/20 11:43:30;;;;;;;3.72;2.10;;;14.40;99.90;;;;;;4911057;28;20601;-65
2021/05/20 11:45:58;;;;;;;3.28;1.73;;;14.30;99.90;;;;;;4928763;28;20051;-65
2021/05/20 11:48:24;;;;;;;2.15;1.95;;;14.30;99.90;;;;;;4927096;28;20774;-65
2021/05/20 11:50:53;;;;;;;2.63;2.22;;;14.50;99.90;;;;;;4929958;28;20052;-65
2021/05/20 11:53:20;;;;;;;2.08;1.88;;;14.40;99.90;;;;;;4918917;28;20063;-64
2021/05/20 11:55:47;;;;;;;2.60;2.40;;;14.50;99.90;;;;;;4930040;28;20066;-65
2021/05/20 11:58:16;;;;;;;1.92;1.60;;;14.50;99.90;;;;;;4930594;28;20064;-65
2021/05/20 12:00:43;;;;;;;2.17;1.98;;;14.40;99.90;;;;;;4931022;28;20055;-65
2021/05/20 12:03:10;;;;;;;1.92;1.75;;;14.40;99.90;;;;;;4929573;28;20052;-65
2021/05/20 12:05:37;;;;;;;3.15;2.42;;;14.70;99.90;;;;;;4928940;28;20055;-65
2021/05/20 12:08:20;;;;;;;4.18;2.67;;;14.90;99.90;;;;;;4929195;28;20146;-65
2021/05/20 12:10:51;;;;;;;4.53;1.73;;;15.20;99.90;;;;;;4930983;28;20040;-65
2021/05/20 12:13:19;;;;;;;3.58;2.10;;;15.30;99.90;;;;;;4925969;28;20061;-65
2021/05/20 12:15:49;;;;;;;2.55;2.13;;;15.40;99.90;;;;;;4929214;28;20061;-65
2021/05/20 12:18:18;;;;;;;1.98;1.88;;;15.20;99.90;;;;;;4929427;28;21703;-65
2021/05/20 12:20:46;;;;;;;2.75;1.60;;;15.10;99.90;;;;;;4928219;28;20051;-65
2021/05/20 12:23:13;;;;;;;2.17;1.30;;;15.00;99.90;;;;;;4927061;28;20055;-65
2021/05/20 12:25:40;;;;;;;5.07;2.05;;;15.00;99.90;;;;;;4930364;28;20762;-66
2021/05/20 12:28:10;;;;;;;3.72;1.60;;;15.10;99.90;;;;;;4928220;28;20056;-65
2021/05/20 12:30:40;;;;;;;2.17;1.85;;;15.20;99.90;;;;;;4929957;28;20066;-65
2021/05/20 12:33:08;;;;;;;3.33;1.83;;;15.20;99.90;;;;;;4934409;28;20154;-65
2021/05/20 12:35:38;;;;;;;1.40;1.30;;;15.30;99.90;;;;;;4933760;28;20051;-66
2021/05/20 12:38:20;;;;;;;2.85;1.90;;;15.50;99.90;;;;;;4928910;28;20545;-65
2021/05/20 12:40:50;;;;;;;2.03;1.42;;;15.60;99.90;;;;;;4932802;28;20447;-65
2021/05/20 12:43:27;;;;;;;1.83;1.42;;;15.70;99.90;;;;;;4929430;28;20055;-65
2021/05/20 12:45:59;;;;;;;2.20;1.90;;;15.70;99.90;;;;;;4932964;28;20166;-65
2021/05/20 12:48:29;;;;;;;2.35;1.80;;;15.80;99.90;;;;;;4931669;28;20071;-65
2021/05/20 12:51:23;;;;;;;1.55;1.25;;;15.90;99.90;;;;;;4933021;28;20051;-65
2021/05/20 12:53:58;;;;;;;3.13;1.92;;;15.80;99.90;;;;;;4929582;28;20155;-65
2021/05/20 12:56:38;;;;;;;5.72;2.28;;;16.10;99.90;;;;;;4933312;28;20118;-65
2021/05/20 12:59:10;;;;;;;2.42;1.65;;;16.30;99.90;;;;;;4933215;28;20107;-65
2021/05/20 13:01:39;;;;;;;2.80;1.90;;;16.50;99.90;;;;;;4932043;28;20048;-65
2021/05/20 13:04:16;;;;;;;1.38;1.23;;;16.70;99.90;;;;;;4932787;28;20668;-65
2021/05/20 13:06:43;;;;;;;1.48;1.15;;;16.60;99.90;;;;;;4931751;28;20949;-65